Time;durP1;ratioP1;P1;durP2;ratioP2;P2;SDS_P1;SDS_P2;PMS_P1;PMS_P2;Temp;Humidity;BMP_temperature;BMP_pressure;BME280_temperature;BME280_humidity;BME280_pressure;Samples;Min_cycle;Max_cycle;Signal;HPM_P1;HPM_P2
2023/08/02 00:00:38;;;;;;;;;;;;;;;21.32;51.97;95033.38;10471516;28;2191;-71
2023/08/02 00:05:38;;;;;;;;;;;;;;;21.29;51.56;95040.00;10442938;28;1965;-70
2023/08/02 00:10:38;;;;;;;;;;;;;;;21.31;51.39;95042.38;10445158;28;1886;-70
2023/08/02 00:15:39;;;;;;;;;;;;;;;21.30;51.71;95036.31;10448404;28;1925;-70
2023/08/02 00:20:39;;;;;;;;;;;;;;;21.31;51.57;95037.09;10448789;28;1822;-70
2023/08/02 00:25:39;;;;;;;;;;;;;;;21.28;51.41;95042.94;10450016;28;1898;-70
2023/08/02 00:30:46;;;;;;;;;;;;;;;21.22;51.69;95026.47;10450596;28;1917;-69
2023/08/02 00:35:46;;;;;;;;;;;;;;;21.25;51.54;95027.72;10459141;28;1854;-70
2023/08/02 00:40:46;;;;;;;;;;;;;;;21.23;51.54;95038.56;10465370;28;4498;-70
2023/08/02 00:45:47;;;;;;;;;;;;;;;21.24;51.18;95036.72;10461943;28;1905;-71
2023/08/02 00:50:47;;;;;;;;;;;;;;;21.22;51.47;95031.75;10483984;28;1821;-71
2023/08/02 00:55:48;;;;;;;;;;;;;;;21.24;51.09;95013.78;10452467;28;2242;-70
2023/08/02 01:00:49;;;;;;;;;;;;;;;21.23;51.26;95019.31;10457235;28;1954;-70
2023/08/02 01:05:56;;;;;;;;;;;;;;;21.24;51.27;95021.69;10452892;28;1976;-70
2023/08/02 01:10:58;;;;;;;;;;;;;;;21.24;50.92;95020.91;10450418;28;1868;-69
2023/08/02 01:15:58;;;;;;;;;;;;;;;21.20;51.12;95009.38;10453266;28;1985;-70
2023/08/02 01:20:58;;;;;;;;;;;;;;;21.20;50.87;95006.75;10445693;28;1982;-69
2023/08/02 01:25:59;;;;;;;;;;;;;;;21.19;50.68;94999.91;10447797;28;2048;-70
2023/08/02 01:30:59;;;;;;;;;;;;;;;21.17;50.71;94994.94;10479999;28;1991;-70
2023/08/02 01:35:59;;;;;;;;;;;;;;;21.17;50.46;94976.47;10474772;28;4474;-70
2023/08/02 01:41:00;;;;;;;;;;;;;;;21.17;50.71;94965.94;10443176;28;1893;-70
2023/08/02 01:46:00;;;;;;;;;;;;;;;21.18;50.48;94961.47;10450740;28;1910;-70
2023/08/02 01:51:00;;;;;;;;;;;;;;;21.16;50.52;94943.31;10448128;28;1972;-70
2023/08/02 01:56:01;;;;;;;;;;;;;;;21.17;50.40;94934.31;10449537;28;1851;-71
2023/08/02 02:01:01;;;;;;;;;;;;;;;21.18;50.41;94924.56;10452381;28;1818;-70
2023/08/02 02:06:01;;;;;;;;;;;;;;;21.21;50.36;94923.94;10440195;28;1918;-70
2023/08/02 02:11:03;;;;;;;;;;;;;;;21.21;50.46;94927.38;10443973;28;1957;-70
2023/08/02 02:16:04;;;;;;;;;;;;;;;21.22;50.23;94925.53;10447511;28;1995;-70
2023/08/02 02:21:04;;;;;;;;;;;;;;;21.23;50.34;94913.88;10454666;28;1958;-71
2023/08/02 02:26:04;;;;;;;;;;;;;;;21.24;50.06;94910.19;10449507;28;1958;-70
2023/08/02 02:31:05;;;;;;;;;;;;;;;21.27;50.40;94905.09;10444252;28;2073;-70
2023/08/02 02:36:06;;;;;;;;;;;;;;;21.27;50.14;94885.88;10457475;28;3416;-70
2023/08/02 02:41:06;;;;;;;;;;;;;;;21.26;50.14;94871.94;10456818;28;2115;-70
2023/08/02 02:46:06;;;;;;;;;;;;;;;21.28;49.84;94882.94;10450467;28;1977;-70
2023/08/02 02:51:06;;;;;;;;;;;;;;;21.28;49.82;94882.16;10452486;28;1882;-70
2023/08/02 02:56:07;;;;;;;;;;;;;;;21.28;49.78;94885.59;10443211;28;1909;-70
2023/08/02 03:01:08;;;;;;;;;;;;;;;21.25;49.68;94882.75;10456005;28;1842;-71
2023/08/02 03:06:09;;;;;;;;;;;;;;;21.27;50.05;94877.97;10443688;28;1906;-71
2023/08/02 03:11:09;;;;;;;;;;;;;;;21.29;49.72;94863.41;10441637;28;1994;-72
2023/08/02 03:16:09;;;;;;;;;;;;;;;21.30;49.62;94840.47;10462430;28;1830;-72
2023/08/02 03:21:10;;;;;;;;;;;;;;;21.30;49.44;94843.09;10453690;28;1928;-71
2023/08/02 03:26:10;;;;;;;;;;;;;;;21.30;49.46;94835.97;10448626;28;1982;-72
2023/08/02 03:31:10;;;;;;;;;;;;;;;21.29;49.76;94839.69;10442179;28;2366;-71
2023/08/02 03:36:11;;;;;;;;;;;;;;;21.29;49.46;94833.66;10448426;28;4474;-71
2023/08/02 03:41:11;;;;;;;;;;;;;;;21.31;49.66;94836.78;10446058;28;1858;-71
2023/08/02 03:46:11;;;;;;;;;;;;;;;21.32;49.75;94833.81;10483089;28;1964;-72
2023/08/02 03:51:12;;;;;;;;;;;;;;;21.34;49.35;94830.88;10450129;28;1896;-71
2023/08/02 03:56:12;;;;;;;;;;;;;;;21.35;49.55;94825.31;10458712;28;1818;-71
2023/08/02 04:01:12;;;;;;;;;;;;;;;21.34;49.50;94829.03;10474987;28;1839;-71
2023/08/02 04:06:12;;;;;;;;;;;;;;;21.31;49.16;94821.72;10466857;28;1975;-70
2023/08/02 04:11:13;;;;;;;;;;;;;;;21.28;49.16;94816.25;10459693;28;1878;-71
2023/08/02 04:16:13;;;;;;;;;;;;;;;21.25;49.43;94807.09;10465018;28;1897;-70
2023/08/02 04:21:18;;;;;;;;;;;;;;;21.23;49.18;94817.16;10456188;28;1923;-71
2023/08/02 04:26:18;;;;;;;;;;;;;;;21.22;49.05;94812.19;10454015;28;1977;-73
2023/08/02 04:31:18;;;;;;;;;;;;;;;21.22;49.19;94802.44;10462663;28;1826;-72
2023/08/02 04:36:18;;;;;;;;;;;;;;;21.23;49.13;94803.97;10457358;28;4577;-71
2023/08/02 04:41:19;;;;;;;;;;;;;;;21.24;49.30;94795.00;10465477;28;2082;-70
2023/08/02 04:46:20;;;;;;;;;;;;;;;21.25;49.28;94801.03;10456913;28;1946;-71
2023/08/02 04:51:20;;;;;;;;;;;;;;;21.26;48.91;94784.16;10454091;28;1866;-71
2023/08/02 04:56:21;;;;;;;;;;;;;;;21.28;48.96;94769.59;10464527;28;1932;-71
2023/08/02 05:01:21;;;;;;;;;;;;;;;21.28;49.04;94756.44;10459442;28;1850;-71
2023/08/02 05:06:21;;;;;;;;;;;;;;;21.28;48.99;94753.78;10453437;28;1902;-71
2023/08/02 05:11:21;;;;;;;;;;;;;;;21.30;48.79;94756.13;10453256;28;2124;-71
2023/08/02 05:16:22;;;;;;;;;;;;;;;21.28;48.96;94753.78;10448182;28;1918;-71
2023/08/02 05:21:23;;;;;;;;;;;;;;;21.25;48.87;94748.31;10442991;28;2362;-71
2023/08/02 05:26:23;;;;;;;;;;;;;;;21.23;48.87;94740.72;10442706;28;1979;-71
2023/08/02 05:31:24;;;;;;;;;;;;;;;21.22;48.66;94746.31;10443810;28;1907;-71
2023/08/02 05:36:24;;;;;;;;;;;;;;;21.21;48.65;94747.38;10445239;28;4430;-71
2023/08/02 05:41:24;;;;;;;;;;;;;;;21.17;48.45;94734.03;10438008;28;2176;-64
2023/08/02 05:46:24;;;;;;;;;;;;;;;21.18;48.52;94730.31;10454553;28;1917;-65
2023/08/02 05:51:25;;;;;;;;;;;;;;;21.20;48.64;94722.09;10446627;28;1850;-66
2023/08/02 05:56:25;;;;;;;;;;;;;;;21.21;48.68;94708.63;10450099;28;1898;-65
2023/08/02 06:01:25;;;;;;;;;;;;;;;21.23;49.03;94708.31;10454195;28;1893;-65
2023/08/02 06:06:26;;;;;;;;;;;;;;;21.25;48.87;94703.53;10437483;28;2009;-65
2023/08/02 06:11:26;;;;;;;;;;;;;;;21.26;48.93;94710.34;10437306;28;1893;-67
2023/08/02 06:16:26;;;;;;;;;;;;;;;21.26;48.51;94702.44;10442471;28;2292;-65
2023/08/02 06:21:27;;;;;;;;;;;;;;;21.24;48.77;94709.88;10477094;28;1897;-66
2023/08/02 06:26:27;;;;;;;;;;;;;;;21.24;48.79;94712.53;10443226;28;2048;-67
2023/08/02 06:31:27;;;;;;;;;;;;;;;21.25;48.99;94724.59;10445792;28;1869;-74
2023/08/02 06:36:27;;;;;;;;;;;;;;;21.24;49.32;94723.84;10433489;28;4169;-80
2023/08/02 06:41:28;;;;;;;;;;;;;;;21.24;48.91;94730.97;10447578;28;1829;-79
2023/08/02 06:46:29;;;;;;;;;;;;;;;21.27;49.19;94741.69;10444333;28;1961;-79
2023/08/02 06:51:29;;;;;;;;;;;;;;;21.30;49.33;94740.31;10441127;28;1885;-72
2023/08/02 06:56:30;;;;;;;;;;;;;;;21.29;49.28;94750.06;10466548;28;1876;-73
2023/08/02 07:01:30;;;;;;;;;;;;;;;21.31;49.29;94744.50;10434937;28;1850;-67
2023/08/02 07:06:30;;;;;;;;;;;;;;;21.31;49.30;94749.78;10435082;28;1917;-68
2023/08/02 07:11:31;;;;;;;;;;;;;;;21.32;49.23;94756.59;10433398;28;1889;-68
2023/08/02 07:16:31;;;;;;;;;;;;;;;21.34;49.41;94749.16;10435015;28;1881;-68
2023/08/02 07:21:31;;;;;;;;;;;;;;;21.33;49.70;94753.66;10435735;28;1818;-67
2023/08/02 07:26:31;;;;;;;;;;;;;;;21.36;49.56;94752.28;10435481;28;1918;-67
2023/08/02 07:31:32;;;;;;;;;;;;;;;21.36;49.77;94744.38;10434923;28;1894;-67
2023/08/02 07:36:32;;;;;;;;;;;;;;;21.38;49.80;94743.00;10433550;28;4842;-68
2023/08/02 07:41:32;;;;;;;;;;;;;;;21.40;49.79;94750.59;10411830;28;2084;-73
2023/08/02 07:46:33;;;;;;;;;;;;;;;21.41;49.70;94750.28;10420411;28;1971;-71
2023/08/02 07:51:33;;;;;;;;;;;;;;;21.43;49.77;94760.53;10466965;28;1946;-70
2023/08/02 07:56:33;;;;;;;;;;;;;;;21.44;49.72;94768.16;10435293;28;1944;-68
2023/08/02 08:01:33;;;;;;;;;;;;;;;21.45;49.84;94755.75;10434479;28;1943;-68
2023/08/02 08:06:34;;;;;;;;;;;;;;;21.45;50.22;94750.47;10435227;28;2121;-70
2023/08/02 08:11:34;;;;;;;;;;;;;;;21.48;50.20;94748.00;10432925;28;3027;-70
2023/08/02 08:16:34;;;;;;;;;;;;;;;21.49;50.16;94740.88;10433284;28;2211;-69
2023/08/02 08:21:34;;;;;;;;;;;;;;;21.49;50.46;94733.75;10435468;28;1939;-69
2023/08/02 08:26:35;;;;;;;;;;;;;;;21.48;50.31;94731.41;10435986;28;1969;-69
2023/08/02 08:31:35;;;;;;;;;;;;;;;21.49;50.52;94727.69;10436694;28;2294;-72
2023/08/02 08:36:36;;;;;;;;;;;;;;;21.48;50.69;94726.91;10442762;28;1861;-69
2023/08/02 08:41:36;;;;;;;;;;;;;;;21.47;50.70;94719.31;10450338;28;1932;-69
2023/08/02 08:46:36;;;;;;;;;;;;;;;21.46;50.83;94709.84;10455072;28;1952;-66
2023/08/02 08:51:38;;;;;;;;;;;;;;;21.46;50.89;94721.16;10439266;28;1998;-67
2023/08/02 08:56:40;;;;;;;;;;;;;;;21.47;50.79;94719.31;10449703;28;2116;-68
2023/08/02 09:01:40;;;;;;;;;;;;;;;21.45;50.91;94716.97;10441408;28;2015;-66
2023/08/02 09:06:40;;;;;;;;;;;;;;;21.47;51.10;94716.69;10437862;28;2288;-67
2023/08/02 09:11:44;;;;;;;;;;;;;;;21.47;50.92;94720.09;10448110;28;2010;-68
2023/08/02 09:16:57;;;;;;;;;;;;;;;21.49;51.05;94712.66;10438485;28;1961;-70
2023/08/02 09:22:06;;;;;;;;;;;;;;;21.50;51.48;94700.22;10442124;28;1988;-67
2023/08/02 09:27:10;;;;;;;;;;;;;;;21.52;51.55;94698.06;10445134;28;2063;-68
2023/08/02 09:32:11;;;;;;;;;;;;;;;21.53;51.52;94707.53;10437767;28;2017;-67
2023/08/02 09:37:12;;;;;;;;;;;;;;;21.54;51.68;94688.78;10440327;28;4929;-67
2023/08/02 09:42:13;;;;;;;;;;;;;;;21.58;51.33;94681.03;10441316;28;2002;-67
2023/08/02 09:47:14;;;;;;;;;;;;;;;21.61;51.15;94680.44;10435074;28;1976;-67
2023/08/02 09:52:25;;;;;;;;;;;;;;;21.61;50.90;94675.94;10437717;28;2027;-67
2023/08/02 09:57:26;;;;;;;;;;;;;;;21.63;51.00;94654.53;10438622;28;2140;-67
2023/08/02 10:02:26;;;;;;;;;;;;;;;21.64;50.74;94651.56;10442540;28;2005;-69
2023/08/02 10:07:47;;;;;;;;;;;;;;;21.67;51.15;94631.72;10445710;28;1960;-70
2023/08/02 10:12:49;;;;;;;;;;;;;;;21.70;50.84;94623.22;10428253;28;2201;-66
2023/08/02 10:17:49;;;;;;;;;;;;;;;21.73;51.13;94615.47;10442940;28;1959;-68
2023/08/02 10:22:49;;;;;;;;;;;;;;;21.75;51.88;94609.88;10440757;28;1970;-68
2023/08/02 10:27:50;;;;;;;;;;;;;;;21.75;51.21;94567.66;10433351;28;1986;-68
2023/08/02 10:33:09;;;;;;;;;;;;;;;21.78;51.35;94569.72;10454120;28;1917;-68
2023/08/02 10:38:09;;;;;;;;;;;;;;;21.78;50.77;94554.63;10434813;28;4496;-68
2023/08/02 10:43:09;;;;;;;;;;;;;;;21.79;51.13;94532.47;10436482;28;1992;-67
2023/08/02 10:48:23;;;;;;;;;;;;;;;21.81;51.06;94526.88;10435559;28;2053;-67
2023/08/02 10:53:25;;;;;;;;;;;;;;;21.82;51.24;94516.03;10436727;28;1959;-68
2023/08/02 10:58:25;;;;;;;;;;;;;;;21.84;51.25;94507.81;10433802;28;2102;-67
2023/08/02 11:03:29;;;;;;;;;;;;;;;21.85;50.91;94490.91;10445231;28;1985;-67
2023/08/02 11:08:29;;;;;;;;;;;;;;;21.86;51.27;94474.00;10431775;28;1995;-67
2023/08/02 11:13:38;;;;;;;;;;;;;;;21.86;50.93;94464.19;10437850;28;2029;-68
2023/08/02 11:18:38;;;;;;;;;;;;;;;21.89;50.91;94465.44;10440687;28;1955;-71
2023/08/02 11:23:38;;;;;;;;;;;;;;;21.90;51.23;94461.72;10431852;28;1940;-67
2023/08/02 11:28:42;;;;;;;;;;;;;;;21.92;51.38;94451.63;10431837;28;1947;-68
2023/08/02 11:33:43;;;;;;;;;;;;;;;21.93;51.23;94442.63;10433206;28;1874;-68
2023/08/02 11:38:43;;;;;;;;;;;;;;;21.95;51.08;94429.88;10426145;28;4454;-68
2023/08/02 11:43:44;;;;;;;;;;;;;;;21.96;51.23;94415.63;10469288;28;1774;-72
2023/08/02 11:48:44;;;;;;;;;;;;;;;21.96;51.23;94410.34;10434349;28;1973;-72
2023/08/02 11:53:49;;;;;;;;;;;;;;;21.97;51.67;94401.34;10435495;28;2112;-67
2023/08/02 11:58:49;;;;;;;;;;;;;;;21.99;51.47;94391.22;10431429;28;2659;-70
2023/08/02 12:04:00;;;;;;;;;;;;;;;21.99;51.53;94374.66;10464111;28;1887;-70
2023/08/02 12:09:00;;;;;;;;;;;;;;;22.01;51.67;94365.31;10446938;28;1917;-73
2023/08/02 12:14:02;;;;;;;;;;;;;;;22.01;51.73;94338.91;10441475;28;1957;-73
2023/08/02 12:19:03;;;;;;;;;;;;;;;22.04;52.12;94342.81;10444662;28;2065;-71
2023/08/02 12:24:12;;;;;;;;;;;;;;;22.05;51.75;94334.56;10444109;28;1869;-77
2023/08/02 12:29:22;;;;;;;;;;;;;;;22.07;52.16;94326.34;10442972;28;1810;-71
2023/08/02 12:34:27;;;;;;;;;;;;;;;22.06;52.30;94320.28;10463482;28;1846;-68
2023/08/02 12:39:27;;;;;;;;;;;;;;;22.08;52.27;94310.19;10444765;28;1898;-70
2023/08/02 12:44:27;;;;;;;;;;;;;;;22.10;52.04;94304.59;10445936;28;1906;-67
2023/08/02 12:49:27;;;;;;;;;;;;;;;22.11;52.25;94309.56;10454482;28;1943;-68
2023/08/02 12:54:28;;;;;;;;;;;;;;;22.11;52.16;94301.66;10452779;28;2430;-69
2023/08/02 12:59:28;;;;;;;;;;;;;;;22.13;52.44;94290.78;10437442;28;1958;-68
2023/08/02 13:04:28;;;;;;;;;;;;;;;22.14;52.13;94284.38;10439018;28;2016;-69
2023/08/02 13:09:28;;;;;;;;;;;;;;;22.14;52.09;94279.91;10444918;28;1822;-70
2023/08/02 13:14:29;;;;;;;;;;;;;;;22.15;52.28;94265.63;10444557;28;1890;-71
2023/08/02 13:19:29;;;;;;;;;;;;;;;22.16;52.49;94271.66;10443568;28;1900;-72
2023/08/02 13:24:29;;;;;;;;;;;;;;;22.18;52.44;94264.19;10442877;28;1902;-72
2023/08/02 13:29:30;;;;;;;;;;;;;;;22.18;52.58;94251.00;10453684;28;1810;-75
2023/08/02 13:34:30;;;;;;;;;;;;;;;22.20;52.56;94262.78;10442696;28;2070;-76
2023/08/02 13:39:30;;;;;;;;;;;;;;;22.21;52.88;94242.44;10442446;28;4583;-71
2023/08/02 13:44:31;;;;;;;;;;;;;;;22.24;52.85;94239.16;10442051;28;2018;-73
2023/08/02 13:49:31;;;;;;;;;;;;;;;22.24;52.96;94228.59;10440084;28;2392;-78
2023/08/02 13:54:31;;;;;;;;;;;;;;;22.25;52.68;94223.03;10442074;28;2003;-75
2023/08/02 13:59:31;;;;;;;;;;;;;;;22.26;53.02;94221.91;10444920;28;1866;-74
2023/08/02 14:04:32;;;;;;;;;;;;;;;22.26;52.93;94214.00;10439091;28;1984;-72
2023/08/02 14:09:32;;;;;;;;;;;;;;;22.27;52.85;94210.28;10444979;28;1849;-72
2023/08/02 14:14:32;;;;;;;;;;;;;;;22.29;53.09;94205.44;10444089;28;2054;-75
2023/08/02 14:19:32;;;;;;;;;;;;;;;22.30;52.88;94188.50;10442099;28;2136;-73
2023/08/02 14:24:33;;;;;;;;;;;;;;;22.31;53.21;94187.41;10448051;28;1891;-76
2023/08/02 14:29:33;;;;;;;;;;;;;;;22.31;53.17;94166.31;10436394;28;2001;-75
2023/08/02 14:34:34;;;;;;;;;;;;;;;22.32;53.07;94174.97;10439568;28;2005;-72
2023/08/02 14:39:34;;;;;;;;;;;;;;;22.33;53.03;94171.25;10437080;28;4580;-72
2023/08/02 14:44:34;;;;;;;;;;;;;;;22.33;53.28;94177.31;10438179;28;2492;-81
2023/08/02 14:49:34;;;;;;;;;;;;;;;22.35;53.33;94172.47;10440895;28;1905;-76
2023/08/02 14:54:35;;;;;;;;;;;;;;;22.36;53.04;94157.41;10440867;28;1877;-75
2023/08/02 14:59:35;;;;;;;;;;;;;;;22.35;53.29;94140.81;10437094;28;1854;-78
2023/08/02 15:04:35;;;;;;;;;;;;;;;22.37;53.17;94125.41;10441072;28;1957;-82
2023/08/02 15:09:36;;;;;;;;;;;;;;;22.38;53.25;94120.91;10442118;28;1830;-74
2023/08/02 15:14:36;;;;;;;;;;;;;;;22.38;53.22;94131.47;10440647;28;1974;-73
2023/08/02 15:19:36;;;;;;;;;;;;;;;22.39;53.49;94120.59;10440932;28;1923;-73
2023/08/02 15:24:36;;;;;;;;;;;;;;;22.38;53.52;94121.66;10439468;28;1905;-73
2023/08/02 15:29:37;;;;;;;;;;;;;;;22.39;53.46;94112.66;10441607;28;1902;-72
2023/08/02 15:34:38;;;;;;;;;;;;;;;22.40;53.54;94118.72;10435814;28;2151;-81
2023/08/02 15:39:38;;;;;;;;;;;;;;;22.41;53.43;94120.25;10435380;28;4580;-80
2023/08/02 15:44:39;;;;;;;;;;;;;;;22.43;53.41;94113.56;10443058;28;1902;-79
2023/08/02 15:49:39;;;;;;;;;;;;;;;22.43;53.71;94107.50;10441904;28;1883;-77
2023/08/02 15:54:39;;;;;;;;;;;;;;;22.42;53.42;94104.06;10449502;28;2096;-78
2023/08/02 15:59:39;;;;;;;;;;;;;;;22.44;53.76;94087.94;10441222;28;1869;-71
2023/08/02 16:04:43;;;;;;;;;;;;;;;22.45;53.72;94095.53;10441854;28;1992;-70
2023/08/02 16:09:43;;;;;;;;;;;;;;;22.44;53.85;94088.69;10453655;28;1990;-69
2023/08/02 16:14:43;;;;;;;;;;;;;;;22.44;53.42;94072.84;10443845;28;1818;-69
2023/08/02 16:19:44;;;;;;;;;;;;;;;22.43;53.74;94063.41;10447436;28;1900;-69
2023/08/02 16:24:44;;;;;;;;;;;;;;;22.44;53.70;94058.88;10444371;28;1979;-69
2023/08/02 16:29:44;;;;;;;;;;;;;;;22.41;53.80;94057.66;10444296;28;2001;-68
2023/08/02 16:34:44;;;;;;;;;;;;;;;22.44;53.48;94061.53;10442229;28;1885;-70
2023/08/02 16:39:45;;;;;;;;;;;;;;;22.42;53.62;94064.47;10448300;28;4501;-68
2023/08/02 16:44:46;;;;;;;;;;;;;;;22.42;53.69;94067.13;10448445;28;2049;-69
2023/08/02 16:49:46;;;;;;;;;;;;;;;22.40;53.70;94058.75;10441789;28;1890;-71
2023/08/02 16:54:47;;;;;;;;;;;;;;;22.42;53.50;94053.16;10437644;28;2009;-69
2023/08/02 16:59:47;;;;;;;;;;;;;;;22.42;53.57;94051.28;10454113;28;1882;-71
2023/08/02 17:04:47;;;;;;;;;;;;;;;22.42;53.33;94029.41;10441379;28;2005;-72
2023/08/02 17:09:47;;;;;;;;;;;;;;;22.41;53.26;94031.25;10449024;28;1877;-71
2023/08/02 17:14:48;;;;;;;;;;;;;;;22.41;53.32;94039.19;10452157;28;1941;-71
2023/08/02 17:19:48;;;;;;;;;;;;;;;22.41;53.29;94044.47;10452730;28;2038;-70
2023/08/02 17:24:48;;;;;;;;;;;;;;;22.41;53.46;94044.47;10450663;28;2087;-70
2023/08/02 17:29:48;;;;;;;;;;;;;;;22.41;53.54;94064.81;10450687;28;2015;-70
2023/08/02 17:34:49;;;;;;;;;;;;;;;22.41;53.19;94078.78;10447707;28;1851;-70
2023/08/02 17:39:53;;;;;;;;;;;;;;;22.41;53.48;94055.03;10452678;28;4614;-71
2023/08/02 17:44:53;;;;;;;;;;;;;;;22.42;53.29;94042.59;10446024;28;1906;-70
2023/08/02 17:49:54;;;;;;;;;;;;;;;22.41;53.60;94036.53;10450443;28;1907;-72
2023/08/02 17:54:54;;;;;;;;;;;;;;;22.41;53.42;94039.19;10442025;28;1936;-70
2023/08/02 17:59:54;;;;;;;;;;;;;;;22.41;53.47;94031.25;10446287;28;2128;-69
2023/08/02 18:04:55;;;;;;;;;;;;;;;22.44;53.83;94069.44;10444167;28;1906;-70
2023/08/02 18:09:55;;;;;;;;;;;;;;;22.47;54.10;94066.16;10448518;28;1965;-71
2023/08/02 18:14:56;;;;;;;;;;;;;;;22.50;54.46;94062.88;10446718;28;2036;-70
2023/08/02 18:19:56;;;;;;;;;;;;;;;22.58;55.20;94076.03;10449088;28;1833;-72
2023/08/02 18:24:56;;;;;;;;;;;;;;;22.65;55.35;94056.97;10438736;28;2039;-66
2023/08/02 18:29:56;;;;;;;;;;;;;;;22.72;55.57;94061.72;10447096;28;2385;-67
2023/08/02 18:34:57;;;;;;;;;;;;;;;22.74;55.78;94067.47;10447239;28;2176;-77
2023/08/02 18:39:58;;;;;;;;;;;;;;;22.72;55.85;94075.72;10477330;28;4521;-70
2023/08/02 18:44:58;;;;;;;;;;;;;;;22.73;56.03;94084.41;10440961;28;1950;-75
2023/08/02 18:49:59;;;;;;;;;;;;;;;22.74;56.04;94070.88;10446426;28;1893;-74
2023/08/02 18:54:59;;;;;;;;;;;;;;;22.75;56.82;94095.44;10444592;28;2016;-69
2023/08/02 19:00:00;;;;;;;;;;;;;;;22.74;56.78;94085.94;10451851;28;1877;-73
2023/08/02 19:05:00;;;;;;;;;;;;;;;22.74;56.75;94085.94;10446242;28;1944;-70
2023/08/02 19:10:02;;;;;;;;;;;;;;;22.74;56.71;94091.22;10471069;28;1873;-69
2023/08/02 19:15:05;;;;;;;;;;;;;;;22.74;56.58;94128.22;10441019;28;2054;-69
2023/08/02 19:20:13;;;;;;;;;;;;;;;22.71;56.72;94142.84;10461600;28;2033;-68
2023/08/02 19:25:14;;;;;;;;;;;;;;;22.72;56.56;94138.34;10446801;28;1988;-69
2023/08/02 19:30:17;;;;;;;;;;;;;;;22.71;56.74;94123.59;10437913;28;1982;-70
2023/08/02 19:35:25;;;;;;;;;;;;;;;22.70;56.68;94133.38;10440439;28;1908;-67
2023/08/02 19:40:26;;;;;;;;;;;;;;;22.69;56.81;94141.63;10441608;28;4506;-69
2023/08/02 19:45:26;;;;;;;;;;;;;;;22.70;56.59;94132.59;10473334;28;1971;-71
2023/08/02 19:50:27;;;;;;;;;;;;;;;22.65;56.71;94142.28;10437989;28;1862;-67
2023/08/02 19:55:27;;;;;;;;;;;;;;;22.65;56.67;94150.19;10436496;28;1990;-73
2023/08/02 20:00:27;;;;;;;;;;;;;;;22.65;56.63;94147.56;10440851;28;1837;-73
2023/08/02 20:05:44;;;;;;;;;;;;;;;22.65;56.46;94157.34;10443896;28;1914;-67
2023/08/02 20:10:48;;;;;;;;;;;;;;;22.65;56.49;94149.41;10460885;28;1930;-67
2023/08/02 20:15:48;;;;;;;;;;;;;;;22.65;56.74;94149.41;10447503;28;1901;-68
2023/08/02 20:20:49;;;;;;;;;;;;;;;22.63;57.02;94162.94;10446212;28;2398;-67
2023/08/02 20:25:53;;;;;;;;;;;;;;;22.64;56.74;94201.50;10443270;28;1975;-70
2023/08/02 20:30:53;;;;;;;;;;;;;;;22.65;56.99;94221.50;10440739;28;2037;-76
2023/08/02 20:35:55;;;;;;;;;;;;;;;22.67;57.13;94267.97;10479777;28;4517;-78
2023/08/02 20:40:55;;;;;;;;;;;;;;;22.67;57.81;94313.63;10485032;28;1882;-78
2023/08/02 20:45:55;;;;;;;;;;;;;;;22.69;58.23;94308.03;10456071;28;1988;-78
2023/08/02 20:50:56;;;;;;;;;;;;;;;22.58;59.74;94342.75;10478455;28;2077;-78
2023/08/02 20:55:56;;;;;;;;;;;;;;;22.68;58.16;94346.88;10446591;28;1934;-78
2023/08/02 21:00:56;;;;;;;;;;;;;;;22.69;57.94;94368.78;10446409;28;1873;-79
2023/08/02 21:05:58;;;;;;;;;;;;;;;22.70;58.10;94359.75;10454524;28;2116;-80
2023/08/02 21:10:58;;;;;;;;;;;;;;;22.68;57.71;94344.25;10487190;28;1858;-77
2023/08/02 21:15:58;;;;;;;;;;;;;;;22.70;57.71;94338.63;10455271;28;1819;-78
2023/08/02 21:20:58;;;;;;;;;;;;;;;22.67;57.39;94319.69;10450028;28;2300;-77
2023/08/02 21:25:59;;;;;;;;;;;;;;;22.67;57.45;94322.31;10484892;28;2382;-78
2023/08/02 21:30:59;;;;;;;;;;;;;;;22.66;57.79;94333.22;10446140;28;1937;-76
2023/08/02 21:35:59;;;;;;;;;;;;;;;22.65;57.54;94350.94;10448106;28;4529;-76
2023/08/02 21:41:01;;;;;;;;;;;;;;;22.64;57.86;94359.19;10454984;28;1905;-78
2023/08/02 21:46:05;;;;;;;;;;;;;;;22.64;57.72;94373.16;10442697;28;1924;-77
2023/08/02 21:51:05;;;;;;;;;;;;;;;22.64;57.93;94389.00;10451239;28;2022;-77
2023/08/02 21:56:05;;;;;;;;;;;;;;;22.64;57.71;94412.78;10479392;28;1888;-78
2023/08/02 22:01:06;;;;;;;;;;;;;;;22.63;58.09;94418.38;10479659;28;1825;-75
2023/08/02 22:06:06;;;;;;;;;;;;;;;22.64;57.85;94410.16;10469866;28;1934;-76
2023/08/02 22:11:10;;;;;;;;;;;;;;;22.64;57.78;94435.78;10450886;28;1894;-76
2023/08/02 22:16:10;;;;;;;;;;;;;;;22.64;57.64;94447.13;10448510;28;2039;-76
2023/08/02 22:21:12;;;;;;;;;;;;;;;22.64;57.49;94454.25;10444475;28;1961;-76
2023/08/02 22:26:12;;;;;;;;;;;;;;;22.64;57.92;94470.91;10442997;28;2005;-76
2023/08/02 22:31:12;;;;;;;;;;;;;;;22.62;57.63;94485.50;10478573;28;1882;-76
2023/08/02 22:36:12;;;;;;;;;;;;;;;22.57;57.89;94501.47;10450675;28;4597;-76
2023/08/02 22:41:13;;;;;;;;;;;;;;;22.50;57.95;94514.41;10450440;28;1891;-76
2023/08/02 22:46:13;;;;;;;;;;;;;;;22.36;58.46;94540.97;10446897;28;1927;-74
2023/08/02 22:51:13;;;;;;;;;;;;;;;22.32;57.08;94558.53;10444296;28;1850;-76
2023/08/02 22:56:14;;;;;;;;;;;;;;;22.25;56.26;94541.63;10479824;28;1935;-74
2023/08/02 23:01:15;;;;;;;;;;;;;;;22.14;55.93;94549.09;10472480;28;1981;-75
2023/08/02 23:06:18;;;;;;;;;;;;;;;22.07;56.04;94555.94;10458024;28;1973;-74
2023/08/02 23:11:19;;;;;;;;;;;;;;;21.96;55.69;94542.28;10453455;28;2237;-75
2023/08/02 23:16:20;;;;;;;;;;;;;;;21.85;55.40;94531.25;10446360;28;1885;-74
2023/08/02 23:21:20;;;;;;;;;;;;;;;21.79;55.50;94531.69;10478076;28;1913;-74
2023/08/02 23:26:21;;;;;;;;;;;;;;;21.75;55.49;94541.28;10457777;28;2003;-73
2023/08/02 23:31:22;;;;;;;;;;;;;;;21.70;55.62;94550.13;10443115;28;1902;-76
2023/08/02 23:36:23;;;;;;;;;;;;;;;21.66;55.34;94537.88;10455707;28;2029;-76
2023/08/02 23:41:23;;;;;;;;;;;;;;;21.62;55.28;94555.38;10449931;28;1959;-73
2023/08/02 23:46:24;;;;;;;;;;;;;;;21.58;55.47;94559.72;10449991;28;1918;-73
2023/08/02 23:51:24;;;;;;;;;;;;;;;21.57;55.53;94564.25;10456960;28;1811;-73
2023/08/02 23:56:24;;;;;;;;;;;;;;;21.55;55.72;94563.00;10464468;28;1780;-73
